Time;durP1;ratioP1;P1;durP2;ratioP2;P2;SDS_P1;SDS_P2;PMS_P1;PMS_P2;Temp;Humidity;BMP_temperature;BMP_pressure;BME280_temperature;BME280_humidity;BME280_pressure;Samples;Min_cycle;Max_cycle;Signal;HPM_P1;HPM_P2
2023/07/20 00:00:25;;;;;;;;;;;;;;;23.14;26.24;97408.41;4958010;29;856;-78
2023/07/20 00:02:51;;;;;;;;;;;;;;;23.03;26.24;97394.69;4957887;29;972;-77
2023/07/20 00:05:21;;;;;;;;;;;;;;;22.70;26.75;97396.47;4958814;28;905;-77
2023/07/20 00:07:47;;;;;;;;;;;;;;;22.71;26.78;97387.47;4922768;29;1332;-77
2023/07/20 00:10:12;;;;;;;;;;;;;;;22.90;26.58;97390.38;4937599;29;918;-78
2023/07/20 00:12:38;;;;;;;;;;;;;;;22.75;26.66;97388.13;4921541;29;953;-78
2023/07/20 00:15:04;;;;;;;;;;;;;;;22.63;26.92;97403.19;4921471;29;2005;-77
2023/07/20 00:17:30;;;;;;;;;;;;;;;22.95;26.56;97398.28;4937514;29;907;-77
2023/07/20 00:19:55;;;;;;;;;;;;;;;22.97;26.69;97398.63;4937584;29;861;-77
2023/07/20 00:22:21;;;;;;;;;;;;;;;22.78;26.77;97404.19;4949495;29;1079;-77
2023/07/20 00:24:47;;;;;;;;;;;;;;;22.91;26.48;97406.16;4956848;29;1091;-78
2023/07/20 00:27:12;;;;;;;;;;;;;;;23.07;26.06;97412.34;4941263;29;1405;-77
2023/07/20 00:29:38;;;;;;;;;;;;;;;22.69;26.81;97407.00;4956469;28;926;-78
2023/07/20 00:32:05;;;;;;;;;;;;;;;22.95;26.44;97401.13;4956708;29;1073;-78
2023/07/20 00:34:31;;;;;;;;;;;;;;;23.03;26.37;97408.09;4940522;29;1970;-77
2023/07/20 00:36:56;;;;;;;;;;;;;;;23.02;26.29;97395.16;4956882;28;1110;-78
2023/07/20 00:39:22;;;;;;;;;;;;;;;23.01;26.09;97393.59;4968986;28;1109;-77
2023/07/20 00:41:47;;;;;;;;;;;;;;;22.79;26.34;97388.75;4959042;28;875;-77
2023/07/20 00:44:13;;;;;;;;;;;;;;;22.89;26.31;97383.91;4973336;28;1072;-78
2023/07/20 00:46:39;;;;;;;;;;;;;;;22.91;26.41;97394.81;4957858;29;1089;-77
2023/07/20 00:49:06;;;;;;;;;;;;;;;23.03;26.22;97396.72;4957304;29;931;-77
2023/07/20 00:51:31;;;;;;;;;;;;;;;22.82;26.53;97392.72;4941993;29;1064;-77
2023/07/20 00:53:57;;;;;;;;;;;;;;;22.78;26.51;97403.41;4941591;29;1191;-77
2023/07/20 00:56:23;;;;;;;;;;;;;;;22.99;26.28;97396.88;4957572;29;1918;-78
2023/07/20 00:58:48;;;;;;;;;;;;;;;22.92;26.52;97390.72;4941504;29;1136;-77
2023/07/20 01:01:14;;;;;;;;;;;;;;;22.82;26.51;97399.16;4941567;29;1141;-77
2023/07/20 01:03:40;;;;;;;;;;;;;;;22.96;26.24;97397.03;4956958;29;824;-78
2023/07/20 01:06:11;;;;;;;;;;;;;;;22.94;26.40;97393.88;4941665;29;1259;-77
2023/07/20 01:08:43;;;;;;;;;;;;;;;22.88;25.98;97391.66;4957365;29;1319;-78
2023/07/20 01:11:10;;;;;;;;;;;;;;;22.67;26.78;97386.81;4957391;29;1235;-77
2023/07/20 01:13:36;;;;;;;;;;;;;;;22.84;26.39;97390.97;4941479;29;852;-78
2023/07/20 01:16:02;;;;;;;;;;;;;;;22.98;26.10;97388.84;4941507;29;1985;-77
2023/07/20 01:18:27;;;;;;;;;;;;;;;22.88;26.31;97380.28;4941011;29;1133;-78
2023/07/20 01:20:59;;;;;;;;;;;;;;;22.97;26.04;97381.59;4957180;29;1125;-78
2023/07/20 01:23:31;;;;;;;;;;;;;;;22.68;26.61;97390.44;4936604;29;1039;-78
2023/07/20 01:26:16;;;;;;;;;;;;;;;22.70;26.75;97394.41;4937252;29;927;-78
2023/07/20 01:28:45;;;;;;;;;;;;;;;22.71;26.65;97404.50;4924189;29;1291;-79
2023/07/20 01:31:13;;;;;;;;;;;;;;;23.11;26.15;97403.69;4924940;29;1155;-78
2023/07/20 01:33:39;;;;;;;;;;;;;;;22.81;26.56;97411.00;4940143;29;1172;-77
2023/07/20 01:36:05;;;;;;;;;;;;;;;22.79;26.63;97414.28;4940614;29;1971;-77
2023/07/20 01:38:30;;;;;;;;;;;;;;;23.04;26.30;97449.38;4924361;29;1074;-77
2023/07/20 01:40:56;;;;;;;;;;;;;;;23.02;26.31;97474.59;4940672;29;1269;-78
2023/07/20 01:43:21;;;;;;;;;;;;;;;22.74;26.58;97480.16;4940211;29;1152;-78
2023/07/20 01:45:47;;;;;;;;;;;;;;;22.74;26.56;97494.31;4940391;29;1033;-77
2023/07/20 01:48:13;;;;;;;;;;;;;;;22.90;26.47;97490.47;4958973;29;1313;-77
2023/07/20 01:50:38;;;;;;;;;;;;;;;23.16;25.86;97496.72;4959500;29;941;-78
2023/07/20 01:53:04;;;;;;;;;;;;;;;22.80;26.53;97503.81;4943127;29;1299;-77
2023/07/20 01:55:29;;;;;;;;;;;;;;;22.93;26.51;97500.09;4943047;29;1998;-77
2023/07/20 01:57:55;;;;;;;;;;;;;;;22.76;26.60;97486.13;4943130;29;1151;-78
2023/07/20 02:00:23;;;;;;;;;;;;;;;22.69;26.57;97497.75;4943263;29;1191;-77
2023/07/20 02:02:50;;;;;;;;;;;;;;;22.71;26.70;97489.56;4942969;29;1179;-78
2023/07/20 02:05:16;;;;;;;;;;;;;;;22.97;26.41;97500.75;4942778;29;1367;-77
2023/07/20 02:07:41;;;;;;;;;;;;;;;22.83;26.55;97497.19;4943546;29;1121;-77
2023/07/20 02:10:07;;;;;;;;;;;;;;;23.03;26.09;97485.47;4958922;29;992;-78
2023/07/20 02:12:34;;;;;;;;;;;;;;;22.94;26.05;97468.41;4958894;29;859;-78
2023/07/20 02:15:00;;;;;;;;;;;;;;;22.56;26.59;97471.53;4939257;29;1918;-78
2023/07/20 02:17:25;;;;;;;;;;;;;;;22.72;26.63;97459.94;4939814;29;1191;-77
2023/07/20 02:19:52;;;;;;;;;;;;;;;22.85;26.41;97454.97;4898731;29;1300;-77
2023/07/20 02:22:18;;;;;;;;;;;;;;;22.95;26.33;97446.50;4920607;29;1203;-78
2023/07/20 02:24:43;;;;;;;;;;;;;;;23.00;26.28;97437.38;4904715;29;780;-77
2023/07/20 02:27:09;;;;;;;;;;;;;;;22.76;26.43;97432.25;4920441;29;867;-77
2023/07/20 02:29:35;;;;;;;;;;;;;;;23.03;26.24;97427.94;4904825;29;882;-78
2023/07/20 02:32:01;;;;;;;;;;;;;;;23.00;26.34;97423.19;4904511;29;1261;-77
2023/07/20 02:34:27;;;;;;;;;;;;;;;23.06;26.33;97416.44;4904527;29;1914;-77
2023/07/20 02:36:52;;;;;;;;;;;;;;;23.03;26.27;97413.75;4904706;29;1119;-77
2023/07/20 02:39:18;;;;;;;;;;;;;;;22.75;26.79;97425.00;4904509;29;1258;-78
2023/07/20 02:41:44;;;;;;;;;;;;;;;22.84;26.68;97424.22;4904594;29;910;-78
2023/07/20 02:44:09;;;;;;;;;;;;;;;22.65;27.02;97423.38;4934273;29;994;-78
2023/07/20 02:46:35;;;;;;;;;;;;;;;22.65;26.83;97411.25;4938576;29;1220;-77
2023/07/20 02:49:01;;;;;;;;;;;;;;;22.95;26.33;97392.59;4958738;29;859;-77
2023/07/20 02:51:26;;;;;;;;;;;;;;;22.95;26.43;97390.59;4927415;29;1135;-78
2023/07/20 02:53:52;;;;;;;;;;;;;;;23.11;26.14;97401.66;4960307;28;878;-77
2023/07/20 02:56:18;;;;;;;;;;;;;;;22.62;26.77;97401.63;4943049;29;1968;-78
2023/07/20 02:58:43;;;;;;;;;;;;;;;22.74;26.67;97392.22;4910677;29;1273;-77
2023/07/20 03:01:09;;;;;;;;;;;;;;;22.55;27.10;97393.41;4959641;29;853;-77
2023/07/20 03:03:38;;;;;;;;;;;;;;;22.87;26.49;97389.25;4943016;29;1348;-78
2023/07/20 03:06:09;;;;;;;;;;;;;;;22.69;26.46;97383.50;4943633;29;1269;-77
2023/07/20 03:08:35;;;;;;;;;;;;;;;22.69;26.55;97372.16;4958374;29;967;-77
2023/07/20 03:11:01;;;;;;;;;;;;;;;22.70;26.57;97363.22;4958927;29;945;-77
2023/07/20 03:13:28;;;;;;;;;;;;;;;22.90;26.18;97353.50;4959298;29;943;-78
2023/07/20 03:15:54;;;;;;;;;;;;;;;22.75;26.67;97339.91;4959847;28;1978;-78
2023/07/20 03:18:19;;;;;;;;;;;;;;;22.76;26.36;97338.66;4958459;29;926;-77
2023/07/20 03:20:46;;;;;;;;;;;;;;;23.07;25.89;97329.28;4958728;29;1156;-77
2023/07/20 03:23:12;;;;;;;;;;;;;;;22.82;26.46;97316.91;4958609;29;1260;-77
2023/07/20 03:25:38;;;;;;;;;;;;;;;22.44;26.96;97308.00;4959527;28;929;-78
2023/07/20 03:28:04;;;;;;;;;;;;;;;22.45;27.02;97295.41;4958744;29;832;-77
2023/07/20 03:30:30;;;;;;;;;;;;;;;22.76;26.48;97301.00;4942974;29;1116;-77
2023/07/20 03:32:55;;;;;;;;;;;;;;;22.84;26.24;97294.53;4942321;29;1183;-77
2023/07/20 03:35:21;;;;;;;;;;;;;;;22.68;26.78;97297.66;4941690;29;1914;-78
2023/07/20 03:37:47;;;;;;;;;;;;;;;22.80;26.49;97282.56;4974065;28;1431;-77
2023/07/20 03:40:14;;;;;;;;;;;;;;;22.63;26.67;97267.88;4961352;28;1259;-77
2023/07/20 03:42:39;;;;;;;;;;;;;;;22.65;26.67;97249.63;4978002;28;817;-78
2023/07/20 03:45:06;;;;;;;;;;;;;;;22.69;26.64;97253.88;4978642;28;848;-77
2023/07/20 03:47:31;;;;;;;;;;;;;;;22.74;26.46;97233.41;4961690;28;822;-78
2023/07/20 03:49:57;;;;;;;;;;;;;;;22.87;26.29;97211.34;4940465;29;1112;-78
2023/07/20 03:52:23;;;;;;;;;;;;;;;22.77;26.33;97209.75;4940496;29;1615;-78
2023/07/20 03:54:51;;;;;;;;;;;;;;;22.87;26.54;97214.16;4955600;29;1906;-77
2023/07/20 03:57:17;;;;;;;;;;;;;;;22.81;26.70;97218.91;4941189;29;1312;-78
2023/07/20 03:59:44;;;;;;;;;;;;;;;23.02;26.22;97225.72;4940803;29;1160;-77
2023/07/20 04:02:10;;;;;;;;;;;;;;;22.81;26.90;97227.41;4941111;29;1406;-77
2023/07/20 04:04:36;;;;;;;;;;;;;;;22.87;26.67;97231.19;4937814;29;1262;-78
2023/07/20 04:07:01;;;;;;;;;;;;;;;23.00;26.58;97221.75;4937540;29;967;-77
2023/07/20 04:09:27;;;;;;;;;;;;;;;22.79;26.72;97229.91;4935733;29;1414;-77
2023/07/20 04:11:52;;;;;;;;;;;;;;;23.02;26.46;97236.28;4937674;29;1046;-77
2023/07/20 04:14:18;;;;;;;;;;;;;;;23.06;26.52;97236.91;4921760;29;1910;-78
2023/07/20 04:16:46;;;;;;;;;;;;;;;22.91;26.44;97238.78;4937041;29;1397;-77
2023/07/20 04:19:11;;;;;;;;;;;;;;;22.74;26.89;97250.41;4937461;29;1119;-77
2023/07/20 04:21:39;;;;;;;;;;;;;;;22.54;27.27;97252.91;4937966;29;1189;-78
2023/07/20 04:24:05;;;;;;;;;;;;;;;22.65;26.92;97267.41;4937146;29;1450;-78
2023/07/20 04:26:31;;;;;;;;;;;;;;;22.80;26.61;97270.44;4937812;29;1169;-77
2023/07/20 04:28:59;;;;;;;;;;;;;;;23.08;26.60;97268.41;4937728;29;923;-78
2023/07/20 04:31:34;;;;;;;;;;;;;;;22.58;27.12;97270.53;4921787;29;1328;-77
2023/07/20 04:33:59;;;;;;;;;;;;;;;22.87;26.69;97299.28;4937447;29;1124;-78
2023/07/20 04:36:25;;;;;;;;;;;;;;;22.87;26.48;97293.59;4937674;29;1910;-78
2023/07/20 04:38:53;;;;;;;;;;;;;;;23.00;26.38;97301.19;4899364;29;1377;-78
2023/07/20 04:41:20;;;;;;;;;;;;;;;22.75;26.88;97325.72;4896358;29;1256;-78
2023/07/20 04:43:48;;;;;;;;;;;;;;;22.81;26.73;97312.50;4918199;29;1306;-78
2023/07/20 04:46:19;;;;;;;;;;;;;;;22.77;26.97;97294.06;4887973;29;1279;-77
2023/07/20 04:48:46;;;;;;;;;;;;;;;22.78;26.61;97290.75;4887302;29;1067;-78
2023/07/20 04:51:11;;;;;;;;;;;;;;;22.94;26.47;97301.03;4918583;29;896;-78
2023/07/20 04:53:38;;;;;;;;;;;;;;;23.13;26.07;97299.78;4901151;29;1748;-78
2023/07/20 04:56:05;;;;;;;;;;;;;;;23.13;26.40;97310.34;4886221;29;1970;-77
2023/07/20 04:58:31;;;;;;;;;;;;;;;22.90;26.71;97308.94;4883465;29;890;-77
2023/07/20 05:00:57;;;;;;;;;;;;;;;22.96;26.63;97317.59;4884076;29;1252;-78
2023/07/20 05:03:22;;;;;;;;;;;;;;;23.12;26.54;97348.50;4885835;29;1149;-78
2023/07/20 05:05:48;;;;;;;;;;;;;;;22.87;26.58;97390.03;4903738;29;1411;-77
2023/07/20 05:08:14;;;;;;;;;;;;;;;22.79;27.13;97377.41;4905667;29;1427;-78
2023/07/20 05:10:40;;;;;;;;;;;;;;;22.83;26.97;97371.59;4937789;29;1198;-77
2023/07/20 05:13:06;;;;;;;;;;;;;;;22.78;26.98;97378.66;4928214;29;1300;-78
2023/07/20 05:15:33;;;;;;;;;;;;;;;23.00;26.70;97378.63;4960153;29;1993;-77
2023/07/20 05:17:58;;;;;;;;;;;;;;;23.10;26.42;97373.72;4960118;28;1136;-78
2023/07/20 05:20:24;;;;;;;;;;;;;;;23.19;26.59;97370.91;4953707;28;1475;-78
2023/07/20 05:22:50;;;;;;;;;;;;;;;23.03;26.84;97379.72;4915797;29;1448;-78
2023/07/20 05:25:18;;;;;;;;;;;;;;;23.06;26.87;97385.25;4943085;29;892;-77
2023/07/20 05:27:44;;;;;;;;;;;;;;;23.10;26.86;97385.06;4928397;29;990;-77
2023/07/20 05:30:10;;;;;;;;;;;;;;;22.86;26.89;97382.78;4943467;29;810;-78
2023/07/20 05:32:35;;;;;;;;;;;;;;;23.03;27.26;97382.53;4943736;29;1185;-78
2023/07/20 05:35:01;;;;;;;;;;;;;;;22.84;27.16;97385.28;4927713;29;1971;-78
2023/07/20 05:37:27;;;;;;;;;;;;;;;22.92;27.21;97390.72;4943134;29;1459;-78
2023/07/20 05:39:52;;;;;;;;;;;;;;;22.64;27.48;97393.44;4943178;29;823;-78
2023/07/20 05:42:18;;;;;;;;;;;;;;;23.01;26.95;97387.91;4943354;29;1020;-78
2023/07/20 05:44:43;;;;;;;;;;;;;;;23.06;27.01;97385.25;4959033;29;1553;-78
2023/07/20 05:47:09;;;;;;;;;;;;;;;22.98;27.19;97397.34;4943727;29;1113;-78
2023/07/20 05:49:35;;;;;;;;;;;;;;;22.98;27.27;97400.19;4943217;29;946;-78
2023/07/20 05:52:01;;;;;;;;;;;;;;;23.03;27.19;97408.09;4958996;29;1545;-78
2023/07/20 05:54:26;;;;;;;;;;;;;;;22.98;27.41;97405.88;4975447;28;1967;-77
2023/07/20 05:56:52;;;;;;;;;;;;;;;22.94;27.40;97396.69;4963766;28;1373;-77
2023/07/20 05:59:17;;;;;;;;;;;;;;;22.80;27.76;97413.03;4963125;28;1371;-77
2023/07/20 06:01:43;;;;;;;;;;;;;;;22.91;27.41;97426.03;4975167;28;1674;-78
2023/07/20 06:04:09;;;;;;;;;;;;;;;23.13;27.23;97423.88;4963321;28;1143;-78
2023/07/20 06:06:34;;;;;;;;;;;;;;;23.16;27.45;97425.78;4980401;28;856;-78
2023/07/20 06:09:03;;;;;;;;;;;;;;;23.33;27.19;97424.22;4980394;28;815;-78
2023/07/20 06:11:30;;;;;;;;;;;;;;;22.78;28.30;97414.75;4963641;28;952;-77
2023/07/20 06:13:56;;;;;;;;;;;;;;;22.93;27.82;97409.31;4961633;28;847;-77
2023/07/20 06:16:22;;;;;;;;;;;;;;;22.67;28.73;97420.06;4974588;28;1906;-77
2023/07/20 06:18:47;;;;;;;;;;;;;;;22.84;28.40;97419.34;4959116;29;1053;-79
2023/07/20 06:21:13;;;;;;;;;;;;;;;23.00;28.41;97414.69;4963466;28;1175;-77
2023/07/20 06:23:38;;;;;;;;;;;;;;;22.98;28.50;97417.22;4980123;28;930;-78
2023/07/20 06:26:05;;;;;;;;;;;;;;;22.79;28.87;97428.44;4963168;28;878;-78
2023/07/20 06:28:31;;;;;;;;;;;;;;;23.02;28.55;97423.53;4979412;28;866;-78
2023/07/20 06:31:00;;;;;;;;;;;;;;;23.18;28.41;97419.63;4966828;28;1518;-77
2023/07/20 06:33:26;;;;;;;;;;;;;;;22.92;28.99;97424.75;4981825;28;1034;-77
2023/07/20 06:35:52;;;;;;;;;;;;;;;23.04;28.86;97426.69;4999588;28;1918;-77
2023/07/20 06:38:18;;;;;;;;;;;;;;;23.33;28.31;97421.38;4949101;28;893;-78
2023/07/20 06:40:46;;;;;;;;;;;;;;;22.97;28.67;97416.44;4966136;28;1151;-78
2023/07/20 06:43:11;;;;;;;;;;;;;;;22.99;28.79;97422.41;4980987;28;1900;-78
2023/07/20 06:45:37;;;;;;;;;;;;;;;23.07;28.66;97420.88;4981756;28;1366;-77
2023/07/20 06:48:03;;;;;;;;;;;;;;;22.95;28.87;97423.81;4999451;28;806;-77
2023/07/20 06:50:28;;;;;;;;;;;;;;;22.90;28.54;97415.91;4981658;28;899;-78
2023/07/20 06:52:54;;;;;;;;;;;;;;;23.07;28.19;97408.72;4981617;28;826;-78
2023/07/20 06:55:20;;;;;;;;;;;;;;;22.97;28.54;97398.63;4965529;28;1910;-78
2023/07/20 06:57:45;;;;;;;;;;;;;;;23.37;27.76;97378.66;4999157;28;827;-78
2023/07/20 07:00:11;;;;;;;;;;;;;;;23.17;27.74;97384.78;4966102;28;1458;-77
2023/07/20 07:02:36;;;;;;;;;;;;;;;22.99;28.00;97384.72;4978140;28;878;-77
2023/07/20 07:05:02;;;;;;;;;;;;;;;22.92;27.95;97368.81;4972925;28;1331;-78
2023/07/20 07:07:28;;;;;;;;;;;;;;;22.76;28.06;97361.34;4998596;28;941;-78
2023/07/20 07:09:53;;;;;;;;;;;;;;;22.94;27.58;97371.97;4981006;28;998;-77
2023/07/20 07:12:19;;;;;;;;;;;;;;;23.08;27.40;97381.94;4996663;28;1345;-77
2023/07/20 07:14:45;;;;;;;;;;;;;;;23.16;27.31;97388.06;4961660;28;1914;-78
2023/07/20 07:17:10;;;;;;;;;;;;;;;22.69;28.17;97367.31;4952119;28;1673;-77
2023/07/20 07:19:38;;;;;;;;;;;;;;;23.09;27.26;97374.97;4980962;28;862;-78
2023/07/20 07:22:04;;;;;;;;;;;;;;;23.00;27.74;97386.31;4977627;28;1008;-78
2023/07/20 07:24:33;;;;;;;;;;;;;;;22.95;27.78;97392.59;4978826;28;711;-78
2023/07/20 07:26:59;;;;;;;;;;;;;;;22.91;27.63;97400.50;4946161;28;1178;-78
2023/07/20 07:29:25;;;;;;;;;;;;;;;22.91;27.92;97400.50;4945703;28;1250;-78
2023/07/20 07:31:51;;;;;;;;;;;;;;;23.12;27.11;97406.06;4978897;28;828;-78
2023/07/20 07:34:16;;;;;;;;;;;;;;;23.19;27.23;97410.63;4945032;28;1977;-78
2023/07/20 07:36:42;;;;;;;;;;;;;;;23.15;27.23;97410.00;4902848;29;1081;-78
2023/07/20 07:39:09;;;;;;;;;;;;;;;23.08;27.13;97415.97;4917743;29;895;-78
2023/07/20 07:41:35;;;;;;;;;;;;;;;22.82;27.36;97416.19;4899794;29;1411;-77
2023/07/20 07:44:00;;;;;;;;;;;;;;;22.90;27.41;97425.25;4919167;29;1426;-77
2023/07/20 07:46:26;;;;;;;;;;;;;;;22.99;27.33;97415.94;4918875;29;925;-78
2023/07/20 07:48:51;;;;;;;;;;;;;;;22.94;27.22;97413.72;4916835;29;1543;-78
2023/07/20 07:51:17;;;;;;;;;;;;;;;22.74;27.65;97403.56;4886820;29;1373;-77
2023/07/20 07:53:43;;;;;;;;;;;;;;;22.76;27.70;97401.03;4902827;29;1735;-78
2023/07/20 07:56:09;;;;;;;;;;;;;;;23.03;27.25;97399.56;4918618;29;1899;-78
2023/07/20 07:58:34;;;;;;;;;;;;;;;23.14;26.98;97397.84;4934170;29;825;-78
2023/07/20 08:01:00;;;;;;;;;;;;;;;23.00;27.33;97391.97;4918737;29;1004;-77
2023/07/20 08:03:26;;;;;;;;;;;;;;;23.08;27.02;97387.59;4918464;29;796;-78
2023/07/20 08:05:55;;;;;;;;;;;;;;;22.88;27.28;97396.53;4934921;29;1767;-78
2023/07/20 08:08:20;;;;;;;;;;;;;;;22.71;27.70;97387.47;4920704;29;848;-78
2023/07/20 08:10:47;;;;;;;;;;;;;;;22.99;27.35;97396.09;4957244;29;967;-77
2023/07/20 08:13:12;;;;;;;;;;;;;;;23.01;27.30;97393.59;4956786;28;889;-77
2023/07/20 08:15:38;;;;;;;;;;;;;;;23.20;26.90;97389.50;4971612;28;1894;-78
2023/07/20 08:18:04;;;;;;;;;;;;;;;22.72;27.74;97394.72;4941055;29;862;-78
2023/07/20 08:20:29;;;;;;;;;;;;;;;22.84;27.42;97390.97;4918466;29;1225;-78
2023/07/20 08:22:55;;;;;;;;;;;;;;;22.98;27.38;97400.19;4932040;29;1534;-78
2023/07/20 08:25:21;;;;;;;;;;;;;;;22.92;27.31;97390.72;4909188;29;1531;-78
2023/07/20 08:27:47;;;;;;;;;;;;;;;23.05;27.24;97388.53;4899570;29;779;-78
2023/07/20 08:30:13;;;;;;;;;;;;;;;22.85;27.23;97386.91;4915369;29;970;-78
2023/07/20 08:32:39;;;;;;;;;;;;;;;23.29;27.00;97391.56;4915560;29;971;-79
2023/07/20 08:35:05;;;;;;;;;;;;;;;22.86;27.38;97379.97;4899341;29;1898;-78
2023/07/20 08:37:31;;;;;;;;;;;;;;;23.02;27.32;97389.47;4902303;29;859;-79
2023/07/20 08:39:56;;;;;;;;;;;;;;;23.05;27.29;97388.53;4902627;29;1367;-78
2023/07/20 08:42:22;;;;;;;;;;;;;;;22.93;27.46;97380.94;4922684;29;853;-78
2023/07/20 08:44:48;;;;;;;;;;;;;;;22.83;27.83;97383.72;4922274;29;966;-78
2023/07/20 08:47:13;;;;;;;;;;;;;;;23.26;27.17;97384.00;4922071;29;799;-79
2023/07/20 08:49:39;;;;;;;;;;;;;;;22.94;27.46;97377.63;4922125;29;917;-78
2023/07/20 08:52:05;;;;;;;;;;;;;;;23.01;27.37;97383.03;4938502;28;951;-78
2023/07/20 08:54:33;;;;;;;;;;;;;;;23.00;27.63;97380.63;4978232;28;1966;-78
2023/07/20 08:57:01;;;;;;;;;;;;;;;23.19;27.38;97382.25;4956473;28;1527;-78
2023/07/20 08:59:28;;;;;;;;;;;;;;;23.24;26.96;97378.78;4940865;29;1211;-79
2023/07/20 09:01:54;;;;;;;;;;;;;;;23.31;27.12;97378.50;4937437;29;1099;-78
2023/07/20 09:04:19;;;;;;;;;;;;;;;23.13;27.19;97395.50;4937438;29;970;-78
2023/07/20 09:06:45;;;;;;;;;;;;;;;23.13;27.16;97390.59;4937660;29;1239;-78
2023/07/20 09:09:11;;;;;;;;;;;;;;;23.20;27.18;97380.19;4923040;29;1373;-78
2023/07/20 09:11:36;;;;;;;;;;;;;;;23.15;27.30;97381.63;4918715;29;1055;-78
2023/07/20 09:14:11;;;;;;;;;;;;;;;22.63;28.19;97380.50;4907720;29;1169;-78
2023/07/20 09:16:49;;;;;;;;;;;;;;;23.16;27.56;97377.53;4868625;29;1981;-78
2023/07/20 09:19:16;;;;;;;;;;;;;;;23.07;27.64;97381.13;4883870;29;1054;-78
2023/07/20 09:24:58;;;;;;;;;;;;;;;22.77;28.01;97377.09;4902071;29;1359;-78
2023/07/20 09:27:34;;;;;;;;;;;;;;;23.30;27.46;97376.91;4905131;29;1411;-78
2023/07/20 09:30:01;;;;;;;;;;;;;;;23.05;27.45;97377.19;4886009;29;1413;-78
2023/07/20 09:32:27;;;;;;;;;;;;;;;23.22;27.40;97374.88;4902906;29;960;-78
2023/07/20 09:34:53;;;;;;;;;;;;;;;23.18;27.62;97365.72;4916104;29;1993;-78
2023/07/20 09:37:22;;;;;;;;;;;;;;;23.29;27.43;97374.53;4883972;29;976;-78
2023/07/20 09:39:48;;;;;;;;;;;;;;;22.98;27.80;97375.44;4886778;29;850;-78
2023/07/20 09:42:15;;;;;;;;;;;;;;;23.32;27.29;97363.03;4887415;29;958;-78
2023/07/20 09:44:40;;;;;;;;;;;;;;;23.08;27.59;97364.91;4887008;29;867;-78
2023/07/20 09:47:06;;;;;;;;;;;;;;;23.31;27.38;97361.47;4886907;29;858;-79
2023/07/20 09:49:32;;;;;;;;;;;;;;;23.33;27.61;97364.63;4914866;29;939;-79
2023/07/20 09:51:57;;;;;;;;;;;;;;;23.22;27.61;97363.50;4921534;29;1034;-78
2023/07/20 09:54:23;;;;;;;;;;;;;;;23.05;28.05;97363.00;4918863;29;1922;-78
2023/07/20 09:56:48;;;;;;;;;;;;;;;23.03;27.89;97357.78;4886940;29;921;-78
2023/07/20 09:59:14;;;;;;;;;;;;;;;23.16;27.59;97377.53;4886395;29;828;-78
2023/07/20 10:01:40;;;;;;;;;;;;;;;23.12;27.62;97368.38;4886816;29;888;-78
2023/07/20 10:04:06;;;;;;;;;;;;;;;23.18;27.91;97357.19;4900892;29;1557;-78
2023/07/20 10:06:32;;;;;;;;;;;;;;;23.09;27.83;97357.97;4905135;29;997;-78
2023/07/20 10:09:00;;;;;;;;;;;;;;;23.29;27.40;97341.25;4933898;29;1442;-79
2023/07/20 10:11:26;;;;;;;;;;;;;;;22.94;28.41;97359.81;4943176;29;884;-78
2023/07/20 10:13:51;;;;;;;;;;;;;;;23.25;27.72;97346.31;4926048;29;1394;-78
2023/07/20 10:16:26;;;;;;;;;;;;;;;23.39;27.39;97345.69;4937385;29;1918;-78
2023/07/20 10:18:51;;;;;;;;;;;;;;;23.12;28.10;97331.50;4956486;28;907;-78
2023/07/20 10:21:17;;;;;;;;;;;;;;;23.09;27.92;97336.03;4984332;28;1393;-78
2023/07/20 10:23:43;;;;;;;;;;;;;;;22.99;28.37;97333.66;4962943;28;1331;-78
2023/07/20 10:26:08;;;;;;;;;;;;;;;23.11;28.03;97329.91;4980720;28;999;-78
2023/07/20 10:28:34;;;;;;;;;;;;;;;23.07;28.12;97329.28;4963002;28;863;-79
2023/07/20 10:30:59;;;;;;;;;;;;;;;23.21;28.01;97334.34;4962923;28;833;-78
2023/07/20 10:33:25;;;;;;;;;;;;;;;23.34;27.79;97326.44;4980103;28;1137;-78
2023/07/20 10:35:54;;;;;;;;;;;;;;;23.28;27.81;97328.34;4964956;28;1914;-78
2023/07/20 10:38:20;;;;;;;;;;;;;;;23.31;27.82;97326.59;4955916;28;1390;-78
2023/07/20 10:40:54;;;;;;;;;;;;;;;23.19;28.16;97324.72;4999461;28;819;-78
2023/07/20 10:43:20;;;;;;;;;;;;;;;23.10;27.86;97316.97;4958202;29;919;-78
2023/07/20 10:45:49;;;;;;;;;;;;;;;23.25;27.84;97312.25;4955908;29;1386;-78
2023/07/20 10:48:16;;;;;;;;;;;;;;;23.09;28.14;97321.06;4925806;29;1492;-77
2023/07/20 10:50:42;;;;;;;;;;;;;;;23.09;28.39;97309.72;4957869;29;914;-77
2023/07/20 10:53:13;;;;;;;;;;;;;;;23.53;27.50;97317.94;4957778;29;1205;-78
2023/07/20 10:55:39;;;;;;;;;;;;;;;23.29;27.84;97315.72;4957974;29;1906;-76
2023/07/20 10:58:09;;;;;;;;;;;;;;;23.16;28.22;97315.09;4957678;29;951;-78
2023/07/20 11:00:35;;;;;;;;;;;;;;;23.08;28.38;97308.16;4958345;28;1089;-78
2023/07/20 11:03:01;;;;;;;;;;;;;;;23.20;28.38;97307.19;4957296;29;1546;-78
2023/07/20 11:05:35;;;;;;;;;;;;;;;23.30;27.97;97305.94;4958355;29;866;-78
2023/07/20 11:08:24;;;;;;;;;;;;;;;23.23;28.14;97309.09;4957797;29;926;-78
2023/07/20 11:10:49;;;;;;;;;;;;;;;23.40;28.16;97312.41;4942070;29;891;-78
2023/07/20 11:13:25;;;;;;;;;;;;;;;23.29;28.02;97295.06;4960022;28;1367;-78
2023/07/20 11:15:53;;;;;;;;;;;;;;;23.39;27.97;97288.91;4981535;28;1910;-77
2023/07/20 11:18:19;;;;;;;;;;;;;;;23.52;27.79;97293.63;4997934;28;1342;-78
2023/07/20 11:20:45;;;;;;;;;;;;;;;23.38;28.08;97284.50;4981492;28;877;-78
2023/07/20 11:23:10;;;;;;;;;;;;;;;23.33;28.21;97273.00;4995782;28;1137;-77
2023/07/20 11:25:37;;;;;;;;;;;;;;;23.09;28.72;97275.66;4978757;28;1487;-78
2023/07/20 11:28:06;;;;;;;;;;;;;;;23.23;28.54;97272.22;4981097;28;1038;-78
2023/07/20 11:30:32;;;;;;;;;;;;;;;23.03;28.73;97254.88;4981611;28;846;-78
2023/07/20 11:32:58;;;;;;;;;;;;;;;23.20;28.69;97264.63;4980647;28;1392;-79
2023/07/20 11:35:23;;;;;;;;;;;;;;;23.51;27.98;97260.81;4998370;28;1989;-78
2023/07/20 11:37:49;;;;;;;;;;;;;;;23.17;28.69;97251.41;4981273;28;1200;-78
2023/07/20 11:40:14;;;;;;;;;;;;;;;23.40;28.35;97233.69;4981527;28;1026;-78
2023/07/20 11:42:40;;;;;;;;;;;;;;;23.44;28.34;97227.06;4981000;28;1337;-78
2023/07/20 11:45:06;;;;;;;;;;;;;;;23.52;28.13;97226.28;4997907;28;821;-79
2023/07/20 11:47:32;;;;;;;;;;;;;;;23.38;28.55;97239.06;4980510;28;1361;-78
2023/07/20 11:49:57;;;;;;;;;;;;;;;23.24;28.93;97239.72;4961515;28;1375;-78
2023/07/20 11:52:23;;;;;;;;;;;;;;;23.37;28.42;97234.66;4976457;28;1448;-78
2023/07/20 11:54:49;;;;;;;;;;;;;;;23.31;28.81;97230.91;4978649;28;1910;-78
2023/07/20 11:57:23;;;;;;;;;;;;;;;23.59;28.23;97239.34;4961939;28;825;-79
2023/07/20 12:00:11;;;;;;;;;;;;;;;23.39;28.60;97234.97;4978550;28;1008;-78
2023/07/20 12:02:37;;;;;;;;;;;;;;;23.31;28.44;97235.75;4961387;28;906;-77
2023/07/20 12:05:03;;;;;;;;;;;;;;;23.50;28.52;97231.63;4974247;28;1386;-78
2023/07/20 12:07:29;;;;;;;;;;;;;;;23.59;28.21;97228.78;4963890;28;942;-78
2023/07/20 12:10:07;;;;;;;;;;;;;;;23.48;28.62;97228.50;4997815;28;759;-78
2023/07/20 12:12:33;;;;;;;;;;;;;;;23.50;28.38;97228.00;4997595;28;894;-78
2023/07/20 12:15:14;;;;;;;;;;;;;;;23.40;28.48;97228.03;4998345;28;1906;-78
2023/07/20 12:17:46;;;;;;;;;;;;;;;23.23;28.84;97226.78;4997731;28;1065;-78
2023/07/20 12:20:11;;;;;;;;;;;;;;;23.08;29.09;97228.69;4979872;28;1391;-78
2023/07/20 12:22:41;;;;;;;;;;;;;;;23.37;28.25;97228.97;4976782;28;1178;-78
2023/07/20 12:25:08;;;;;;;;;;;;;;;23.50;27.97;97219.50;4977262;28;988;-78
2023/07/20 12:27:35;;;;;;;;;;;;;;;23.50;27.97;97213.81;4957257;29;900;-79
2023/07/20 12:30:00;;;;;;;;;;;;;;;23.55;28.14;97211.09;4956598;29;964;-78
2023/07/20 12:32:26;;;;;;;;;;;;;;;23.56;28.03;97211.91;4957220;29;990;-79
2023/07/20 12:34:51;;;;;;;;;;;;;;;23.20;28.42;97207.88;4956192;29;1907;-78
2023/07/20 12:37:20;;;;;;;;;;;;;;;23.24;28.26;97214.16;4957019;29;1037;-77
2023/07/20 12:39:47;;;;;;;;;;;;;;;23.26;28.40;97205.97;4956781;29;828;-78
2023/07/20 12:42:14;;;;;;;;;;;;;;;23.27;28.38;97207.56;4940852;29;861;-79
2023/07/20 12:44:39;;;;;;;;;;;;;;;23.34;28.11;97201.53;4956510;29;1084;-79
2023/07/20 12:47:05;;;;;;;;;;;;;;;23.27;28.57;97195.41;4956746;29;967;-78
2023/07/20 12:49:30;;;;;;;;;;;;;;;23.47;28.17;97203.41;4924851;29;1388;-78
2023/07/20 12:51:56;;;;;;;;;;;;;;;23.18;28.43;97204.72;4937637;29;956;-78
2023/07/20 12:54:21;;;;;;;;;;;;;;;23.42;28.24;97202.00;4937137;29;993;-78
2023/07/20 12:56:47;;;;;;;;;;;;;;;23.44;27.98;97208.00;4938314;29;1975;-79
2023/07/20 12:59:13;;;;;;;;;;;;;;;23.51;27.86;97212.53;4975602;28;1462;-78